Time;durP1;ratioP1;P1;durP2;ratioP2;P2;SDS_P1;SDS_P2;PMS_P1;PMS_P2;Temp;Humidity;BMP_temperature;BMP_pressure;BME280_temperature;BME280_humidity;BME280_pressure;Samples;Min_cycle;Max_cycle;Signal;HPM_P1;HPM_P2
2023/03/05 00:01:06;;;;;;;9.90;1.92;;;;;;;3.09;100.00;102150.03;5076616;28;20111;-85
2023/03/05 00:03:32;;;;;;;8.13;1.90;;;;;;;3.05;100.00;102151.38;5100833;28;20099;-86
2023/03/05 00:05:57;;;;;;;12.53;2.00;;;;;;;3.05;100.00;102149.56;5094579;28;20377;-85
2023/03/05 00:08:22;;;;;;;11.37;2.10;;;;;;;3.07;100.00;102152.00;5094152;28;20498;-84
2023/03/05 00:10:57;;;;;;;7.60;1.77;;;;;;;3.04;100.00;102147.91;5094012;28;20070;-84
2023/03/05 00:13:22;;;;;;;9.30;1.90;;;;;;;3.01;100.00;102149.06;5104862;28;20554;-84
2023/03/05 00:15:47;;;;;;;8.57;1.30;;;;;;;2.93;100.00;102132.38;5092354;28;20082;-83
2023/03/05 00:18:13;;;;;;;8.00;1.67;;;;;;;2.95;100.00;102146.28;5092932;28;20024;-84
2023/03/05 00:20:38;;;;;;;9.23;1.50;;;;;;;2.94;100.00;102144.63;5090884;28;20056;-84
2023/03/05 00:23:03;;;;;;;10.60;1.45;;;;;;;2.86;100.00;102137.56;5092830;28;20111;-84
2023/03/05 00:25:28;;;;;;;12.60;2.20;;;;;;;2.86;100.00;102143.69;5092302;28;20024;-84
2023/03/05 00:27:54;;;;;;;8.77;1.70;;;;;;;2.87;100.00;102144.50;5094818;28;20032;-84
2023/03/05 00:30:19;;;;;;;13.63;1.90;;;;;;;2.83;100.00;102138.75;5092698;28;20020;-83
2023/03/05 00:32:44;;;;;;;13.27;1.50;;;;;;;2.88;100.00;102152.28;5101658;28;20840;-84
2023/03/05 00:35:10;;;;;;;10.47;1.37;;;;;;;2.88;100.00;102141.72;5095487;28;20020;-84
2023/03/05 00:37:36;;;;;;;9.27;1.40;;;;;;;2.91;100.00;102139.72;5090223;28;20051;-84
2023/03/05 00:40:03;;;;;;;8.90;1.63;;;;;;;2.92;100.00;102134.22;5092310;28;20420;-84
2023/03/05 00:42:28;;;;;;;9.88;1.65;;;;;;;2.93;100.00;102132.38;5092089;28;20024;-84
2023/03/05 00:44:53;;;;;;;11.13;1.90;;;;;;;2.88;100.00;102120.53;5102722;28;20042;-83
2023/03/05 00:47:18;;;;;;;11.88;1.83;;;;;;;2.91;100.00;102127.28;5112275;28;20766;-84
2023/03/05 00:49:47;;;;;;;6.07;1.70;;;;;;;2.92;100.00;102117.53;5112636;28;20106;-83
2023/03/05 00:52:12;;;;;;;9.90;1.50;;;;;;;2.92;100.00;102125.47;5097447;28;20114;-84
2023/03/05 00:54:38;;;;;;;10.27;1.60;;;;;;;2.93;100.00;102119.16;5112486;28;20106;-84
2023/03/05 00:57:04;;;;;;;11.67;2.10;;;;;;;2.93;100.00;102109.41;5094282;28;20069;-84
2023/03/05 00:59:30;;;;;;;6.28;1.48;;;;;;;2.95;100.00;102114.50;5103517;28;20444;-84
2023/03/05 01:01:55;;;;;;;9.13;1.50;;;;;;;2.93;100.00;102117.34;5091927;28;20099;-84
2023/03/05 01:04:20;;;;;;;6.63;1.23;;;;;;;2.86;100.00;102114.56;5107885;28;20059;-84
2023/03/05 01:06:46;;;;;;;10.57;1.70;;;;;;;2.90;100.00;102108.94;5073675;28;20444;-83
2023/03/05 01:09:11;;;;;;;8.80;1.63;;;;;;;2.93;100.00;102103.25;5104604;28;20742;-84
2023/03/05 01:11:36;;;;;;;6.63;1.63;;;;;;;2.93;100.00;102109.41;5112813;28;20350;-84
2023/03/05 01:14:02;;;;;;;6.70;1.17;;;;;;;2.90;100.00;102095.69;5110452;28;20052;-83
2023/03/05 01:16:27;;;;;;;10.40;1.67;;;;;;;2.92;100.00;102093.69;5111411;28;20131;-83
2023/03/05 01:18:53;;;;;;;6.37;1.30;;;;;;;2.92;100.00;102091.88;5112379;28;20024;-82
2023/03/05 01:21:20;;;;;;;8.75;1.90;;;;;;;2.92;100.00;102093.69;5104273;28;20028;-84
2023/03/05 01:23:46;;;;;;;9.57;1.80;;;;;;;2.90;100.00;102085.91;5093739;28;20036;-84
2023/03/05 01:26:12;;;;;;;10.00;1.87;;;;;;;2.91;100.00;102087.56;5095719;28;20027;-84
2023/03/05 01:28:38;;;;;;;8.00;1.88;;;;;;;2.84;100.00;102070.72;5106907;28;20042;-83
2023/03/05 01:31:07;;;;;;;10.82;2.05;;;;;;;2.90;100.00;102080.63;5113866;28;20449;-83
2023/03/05 01:33:32;;;;;;;7.35;1.40;;;;;;;2.90;100.00;102074.50;5106207;28;20397;-83
2023/03/05 01:35:58;;;;;;;8.63;1.50;;;;;;;2.89;100.00;102068.38;5115335;28;20103;-83
2023/03/05 01:38:23;;;;;;;11.00;2.20;;;;;;;2.88;100.00;102064.91;5115072;28;20106;-84
2023/03/05 01:40:49;;;;;;;13.13;2.27;;;;;;;2.87;100.00;102068.56;5093679;28;20115;-84
2023/03/05 01:43:25;;;;;;;10.13;1.55;;;;;;;2.84;100.00;102060.97;5106418;28;20102;-83
2023/03/05 01:46:27;;;;;;;10.52;1.73;;;;;;;2.83;100.00;102056.66;5095638;28;20090;-83
2023/03/05 01:49:04;;;;;;;9.18;2.00;;;;;;;2.82;100.00;102051.56;5093446;28;20036;-83
2023/03/05 01:51:53;;;;;;;11.23;1.70;;;;;;;2.77;100.00;102041.47;5073266;28;20051;-84
2023/03/05 01:54:21;;;;;;;10.60;1.70;;;;;;;2.78;100.00;102047.63;5091283;28;20111;-83
2023/03/05 01:56:49;;;;;;;10.02;1.90;;;;;;;2.77;100.00;102041.47;5089272;28;20020;-83
2023/03/05 01:59:15;;;;;;;14.50;1.85;;;;;;;2.73;100.00;102034.91;5091328;28;20032;-83
2023/03/05 02:01:47;;;;;;;8.13;2.20;;;;;;;2.74;100.00;102033.88;5091126;28;20032;-83
2023/03/05 02:04:16;;;;;;;8.80;1.50;;;;;;;2.76;100.00;102041.66;5091304;28;20028;-84
2023/03/05 02:06:43;;;;;;;12.23;1.88;;;;;;;2.72;100.00;102020.03;5090413;28;20419;-84
2023/03/05 02:09:09;;;;;;;8.88;1.77;;;;;;;2.74;100.00;102023.28;5090050;28;20048;-84
2023/03/05 02:11:36;;;;;;;9.83;1.80;;;;;;;2.72;100.00;102020.84;5090311;28;20059;-84
2023/03/05 02:14:03;;;;;;;8.25;1.50;;;;;;;2.68;100.00;102016.06;5074880;28;20057;-85
2023/03/05 02:16:35;;;;;;;9.48;1.50;;;;;;;2.68;100.00;102011.59;5089805;28;20118;-84
2023/03/05 02:19:05;;;;;;;7.88;1.75;;;;;;;2.70;100.00;102011.44;5090696;28;20471;-85
2023/03/05 02:21:40;;;;;;;12.50;2.03;;;;;;;2.71;100.00;102007.78;5090403;28;20028;-83
2023/03/05 02:24:05;;;;;;;12.80;1.92;;;;;;;2.70;100.00;102006.16;5093138;28;20098;-83
2023/03/05 02:26:31;;;;;;;11.10;1.70;;;;;;;2.68;100.00;102005.50;5110384;28;20114;-85
2023/03/05 02:29:00;;;;;;;11.30;1.50;;;;;;;2.69;100.00;102001.84;5107940;28;20486;-85
2023/03/05 02:31:25;;;;;;;14.88;2.00;;;;;;;2.70;100.00;102000.84;5110532;28;20118;-83
2023/03/05 02:33:54;;;;;;;12.53;1.73;;;;;;;2.66;100.00;101994.25;5096052;28;20099;-84
2023/03/05 02:36:20;;;;;;;8.40;1.40;;;;;;;2.63;100.00;101981.38;5092625;28;20111;-83
2023/03/05 02:38:46;;;;;;;9.93;1.50;;;;;;;2.65;100.00;101980.19;5090410;28;20434;-84
2023/03/05 02:41:13;;;;;;;10.10;1.52;;;;;;;2.67;100.00;101990.59;5090777;28;20475;-84
2023/03/05 02:43:38;;;;;;;8.15;1.63;;;;;;;2.68;100.00;101994.91;5089445;28;20070;-83
2023/03/05 02:46:04;;;;;;;12.87;1.90;;;;;;;2.62;100.00;101974.44;5101964;28;20088;-83
2023/03/05 02:48:29;;;;;;;8.07;1.70;;;;;;;2.65;100.00;101982.81;5110612;28;20026;-83
2023/03/05 02:50:55;;;;;;;5.27;1.40;;;;;;;2.61;100.00;101964.84;5094810;28;20032;-84
2023/03/05 02:53:22;;;;;;;10.80;1.70;;;;;;;2.63;100.00;101965.50;5089952;28;20421;-83
2023/03/05 02:55:48;;;;;;;10.13;1.23;;;;;;;2.64;100.00;101973.28;5090405;28;20389;-84
2023/03/05 02:58:13;;;;;;;7.68;1.60;;;;;;;2.58;100.00;101958.91;5090576;28;20130;-83
2023/03/05 03:00:39;;;;;;;7.87;1.57;;;;;;;2.62;100.00;101967.31;5089984;28;20048;-82
2023/03/05 03:03:04;;;;;;;9.37;1.67;;;;;;;2.61;100.00;101959.53;5090492;28;20032;-83
2023/03/05 03:05:29;;;;;;;7.10;1.57;;;;;;;2.56;100.00;101958.25;5089208;28;20713;-85
2023/03/05 03:07:56;;;;;;;10.88;1.65;;;;;;;2.55;100.00;101953.97;5090344;28;20470;-86
2023/03/05 03:10:22;;;;;;;6.30;1.33;;;;;;;2.56;100.00;101952.16;5071914;28;20024;-86
2023/03/05 03:12:47;;;;;;;10.07;1.50;;;;;;;2.55;100.00;101950.50;5110098;28;20303;-86
2023/03/05 03:15:14;;;;;;;7.63;1.60;;;;;;;2.55;100.00;101940.75;5092892;28;20032;-86
2023/03/05 03:17:40;;;;;;;7.90;1.67;;;;;;;2.49;100.00;101933.50;5090487;28;20059;-86
2023/03/05 03:20:09;;;;;;;10.73;1.35;;;;;;;2.48;100.00;101934.50;5090024;28;20032;-86
2023/03/05 03:22:34;;;;;;;9.38;1.73;;;;;;;2.41;100.00;101933.56;5090250;28;20036;-86
2023/03/05 03:25:00;;;;;;;6.50;1.47;;;;;;;2.22;100.00;101921.63;5091603;28;20024;-86
2023/03/05 03:27:26;;;;;;;5.72;1.48;;;;;;;2.07;100.00;101921.53;5092244;28;20395;-86
2023/03/05 03:29:51;;;;;;;9.40;1.80;;;;;;;2.03;100.00;101925.50;5093815;28;20028;-86
2023/03/05 03:32:17;;;;;;;10.18;2.13;;;;;;;1.98;100.00;101918.09;5093228;28;20032;-86
2023/03/05 03:34:43;;;;;;;6.37;1.17;;;;;;;1.95;100.00;101908.72;5092244;28;20020;-86
2023/03/05 03:37:09;;;;;;;17.55;1.95;;;;;;;1.98;100.00;101901.44;5072948;28;20103;-86
2023/03/05 03:39:34;;;;;;;9.77;2.13;;;;;;;2.00;100.00;101899.44;5066112;28;20060;-86
2023/03/05 03:41:59;;;;;;;10.63;1.70;;;;;;;1.96;100.00;101893.66;5093536;28;20360;-86
2023/03/05 03:44:25;;;;;;;10.43;1.57;;;;;;;2.07;100.00;101900.38;5092321;28;20035;-85
2023/03/05 03:46:51;;;;;;;13.00;2.40;;;;;;;2.07;100.00;101903.03;5092610;28;20028;-85
2023/03/05 03:49:19;;;;;;;14.73;1.90;;;;;;;2.09;100.00;101895.75;5093130;28;20039;-85
2023/03/05 03:51:45;;;;;;;5.75;1.73;;;;;;;2.06;100.00;101888.16;5073661;28;20036;-85
2023/03/05 03:54:13;;;;;;;7.85;1.95;;;;;;;2.11;100.00;101899.84;5071964;28;20098;-85
2023/03/05 03:56:38;;;;;;;10.43;2.00;;;;;;;2.14;100.00;101890.75;5100446;28;20092;-86
2023/03/05 03:59:03;;;;;;;7.97;1.87;;;;;;;2.13;100.00;101897.03;5097360;28;20785;-85
2023/03/05 04:01:30;;;;;;;8.27;1.80;;;;;;;2.15;100.00;101892.41;5090025;28;20095;-85
2023/03/05 04:03:55;;;;;;;6.45;2.08;;;;;;;2.10;100.00;101892.09;5108767;28;20705;-85
2023/03/05 04:06:20;;;;;;;8.73;2.00;;;;;;;2.18;100.00;101892.06;5107280;28;20020;-84
2023/03/05 04:08:46;;;;;;;7.43;1.90;;;;;;;2.18;100.00;101892.06;5095396;28;20073;-83
2023/03/05 04:11:11;;;;;;;11.77;2.10;;;;;;;2.16;100.00;101883.47;5098510;28;20016;-86
2023/03/05 04:13:36;;;;;;;10.23;1.77;;;;;;;2.19;100.00;101882.28;5097967;28;20107;-84
2023/03/05 04:16:02;;;;;;;6.33;1.87;;;;;;;2.18;100.00;101878.00;5110886;28;20176;-84
2023/03/05 04:18:27;;;;;;;9.30;1.90;;;;;;;2.19;100.00;101882.28;5093445;28;20028;-84
2023/03/05 04:20:53;;;;;;;12.97;2.30;;;;;;;2.19;100.00;101875.16;5094482;28;20036;-84
2023/03/05 04:23:18;;;;;;;11.17;2.20;;;;;;;2.15;100.00;101863.31;5093835;28;20039;-84
2023/03/05 04:25:44;;;;;;;12.82;2.20;;;;;;;2.18;100.00;101868.25;5092678;28;20077;-84
2023/03/05 04:28:10;;;;;;;11.20;2.73;;;;;;;2.15;100.00;101860.66;5093368;28;20028;-84
2023/03/05 04:30:36;;;;;;;9.52;2.70;;;;;;;2.16;100.00;101867.59;5092998;28;20032;-84
2023/03/05 04:33:02;;;;;;;7.55;2.42;;;;;;;2.09;100.00;101848.16;5107041;28;20466;-84
2023/03/05 04:35:27;;;;;;;14.43;2.40;;;;;;;2.16;100.00;101856.19;5091245;28;20111;-84
2023/03/05 04:37:52;;;;;;;11.67;2.63;;;;;;;2.13;100.00;101852.09;5095359;28;20483;-84
2023/03/05 04:40:18;;;;;;;11.85;2.80;;;;;;;2.17;100.00;101856.03;5092379;28;20051;-84
2023/03/05 04:42:43;;;;;;;9.10;2.63;;;;;;;2.16;100.00;101856.19;5091485;28;20544;-84
2023/03/05 04:45:09;;;;;;;14.03;2.97;;;;;;;2.07;100.00;101843.03;5099837;28;20019;-84
2023/03/05 04:47:37;;;;;;;14.13;3.47;;;;;;;2.13;100.00;101852.09;5098630;28;20032;-84
2023/03/05 04:50:04;;;;;;;10.77;3.17;;;;;;;2.09;100.00;101846.34;5102207;28;20549;-84
2023/03/05 04:52:29;;;;;;;19.15;3.67;;;;;;;2.10;100.00;101845.31;5091541;28;20065;-84
2023/03/05 04:54:55;;;;;;;11.57;3.53;;;;;;;2.11;100.00;101846.97;5091660;28;20016;-83
2023/03/05 04:57:20;;;;;;;8.67;3.50;;;;;;;2.12;100.00;101839.88;5093630;28;20035;-84
2023/03/05 04:59:45;;;;;;;7.47;2.92;;;;;;;2.13;100.00;101846.81;5091474;28;20115;-84
2023/03/05 05:02:11;;;;;;;8.43;3.43;;;;;;;2.05;100.00;101831.81;5092500;28;20030;-84
2023/03/05 05:04:36;;;;;;;12.80;2.90;;;;;;;2.16;100.00;101841.16;5096226;28;20051;-84
2023/03/05 05:07:03;;;;;;;13.82;3.75;;;;;;;2.13;100.00;101830.94;5097338;28;20110;-84
2023/03/05 05:09:29;;;;;;;9.38;3.78;;;;;;;2.15;100.00;101836.03;5090860;28;20030;-84
2023/03/05 05:11:54;;;;;;;11.53;3.67;;;;;;;2.15;100.00;101826.28;5091594;28;20103;-84
2023/03/05 05:14:20;;;;;;;12.43;4.10;;;;;;;2.15;100.00;101834.22;5091045;28;20028;-84
2023/03/05 05:16:45;;;;;;;12.32;3.78;;;;;;;2.17;100.00;101832.22;5089750;28;20023;-84
2023/03/05 05:19:12;;;;;;;17.23;4.00;;;;;;;2.18;100.00;101828.59;5104972;28;20129;-84
2023/03/05 05:21:37;;;;;;;19.73;4.05;;;;;;;2.18;100.00;101825.09;5099805;28;20119;-84
2023/03/05 05:24:03;;;;;;;10.53;3.50;;;;;;;2.13;100.00;101820.34;5072797;28;20119;-85
2023/03/05 05:26:28;;;;;;;9.60;3.85;;;;;;;2.20;100.00;101831.03;5091000;28;20442;-85
2023/03/05 05:28:54;;;;;;;13.73;3.93;;;;;;;2.19;100.00;101824.91;5091623;28;20103;-85
2023/03/05 05:31:19;;;;;;;14.33;3.80;;;;;;;2.11;100.00;101817.06;5073405;28;20483;-88
2023/03/05 05:33:45;;;;;;;12.80;3.90;;;;;;;2.17;100.00;101821.66;5091744;28;20039;-86
2023/03/05 05:36:13;;;;;;;12.00;4.07;;;;;;;2.18;100.00;101818.00;5088836;28;20027;-86
2023/03/05 05:38:39;;;;;;;15.25;4.82;;;;;;;2.14;100.00;101805.28;5091150;28;20095;-86
2023/03/05 05:41:08;;;;;;;10.07;4.00;;;;;;;2.18;100.00;101811.88;5091573;28;20074;-86
2023/03/05 05:43:33;;;;;;;9.57;3.95;;;;;;;2.15;100.00;101815.72;5091109;28;20032;-86
2023/03/05 05:46:03;;;;;;;8.82;3.50;;;;;;;2.06;100.00;101803.53;5090867;28;20529;-86
2023/03/05 05:48:30;;;;;;;11.30;4.03;;;;;;;2.08;100.00;101809.47;5117812;28;20031;-86
2023/03/05 05:50:57;;;;;;;10.68;3.63;;;;;;;2.02;100.00;101802.25;5099414;28;20024;-87
2023/03/05 05:53:23;;;;;;;12.73;3.97;;;;;;;2.03;100.00;101803.88;5104501;28;20523;-88
2023/03/05 05:55:49;;;;;;;12.27;4.32;;;;;;;2.03;100.00;101794.16;5126321;28;20533;-88
2023/03/05 05:58:15;;;;;;;13.32;4.63;;;;;;;2.09;100.00;101806.69;5119104;28;20028;-88
2023/03/05 06:00:40;;;;;;;12.67;4.53;;;;;;;2.06;100.00;101799.09;5094377;28;20028;-88
2023/03/05 06:03:06;;;;;;;14.20;4.90;;;;;;;2.06;100.00;101799.09;5090247;28;20047;-86
2023/03/05 06:05:32;;;;;;;10.85;4.43;;;;;;;1.91;100.00;101775.22;5090811;28;20016;-87
2023/03/05 06:07:57;;;;;;;13.95;4.43;;;;;;;1.98;100.00;101793.03;5091232;28;20522;-87
2023/03/05 06:10:22;;;;;;;10.27;4.57;;;;;;;1.92;100.00;101786.63;5089897;28;20058;-87
2023/03/05 06:12:48;;;;;;;19.00;5.93;;;;;;;1.90;100.00;101778.88;5089706;28;20486;-88
2023/03/05 06:15:13;;;;;;;11.73;4.83;;;;;;;1.90;100.00;101778.88;5094398;28;20028;-88
2023/03/05 06:17:38;;;;;;;14.82;5.68;;;;;;;1.87;100.00;101773.94;5089601;28;20074;-88
2023/03/05 06:20:05;;;;;;;13.97;5.10;;;;;;;1.91;100.00;101771.78;5090913;28;20035;-88
2023/03/05 06:22:31;;;;;;;16.35;5.18;;;;;;;2.01;100.00;101784.75;5090718;28;20024;-88
2023/03/05 06:24:56;;;;;;;12.80;5.20;;;;;;;2.01;100.00;101785.56;5093586;28;20099;-91
2023/03/05 06:27:21;;;;;;;11.67;5.67;;;;;;;2.03;100.00;101790.66;5111434;28;20055;-88
2023/03/05 06:29:50;;;;;;;16.20;5.57;;;;;;;2.08;100.00;101785.69;5110933;28;20051;-87
2023/03/05 06:32:15;;;;;;;15.48;5.40;;;;;;;2.06;100.00;101774.44;5099208;28;20060;-93
2023/03/05 06:34:41;;;;;;;17.37;5.30;;;;;;;2.13;100.00;101791.25;5093890;28;20034;-87
2023/03/05 06:37:06;;;;;;;16.67;5.77;;;;;;;2.08;100.00;101778.59;5090590;28;20445;-87
2023/03/05 06:39:32;;;;;;;15.45;4.70;;;;;;;2.12;100.00;101785.13;5090161;28;20462;-87
2023/03/05 06:41:57;;;;;;;10.20;5.30;;;;;;;2.11;100.00;101770.28;5094215;28;20024;-87
2023/03/05 06:44:22;;;;;;;13.80;5.33;;;;;;;2.12;100.00;101787.78;5089767;28;20076;-87
2023/03/05 06:46:48;;;;;;;16.50;5.70;;;;;;;2.06;100.00;101775.28;5103831;28;20322;-88
2023/03/05 06:49:15;;;;;;;11.30;5.00;;;;;;;2.10;100.00;101778.41;5090819;28;20027;-87
2023/03/05 06:51:41;;;;;;;15.23;4.88;;;;;;;2.15;100.00;101789.28;5091466;28;20024;-85
2023/03/05 06:54:11;;;;;;;15.32;5.68;;;;;;;2.14;100.00;101784.16;5109883;28;20055;-87
2023/03/05 06:56:39;;;;;;;9.17;5.10;;;;;;;2.14;100.00;101782.34;5100130;28;20122;-86
2023/03/05 06:59:05;;;;;;;14.73;5.07;;;;;;;2.20;100.00;101788.72;5116696;28;20054;-85
2023/03/05 07:01:30;;;;;;;13.18;5.15;;;;;;;2.19;100.00;101787.09;5116371;28;20020;-87
2023/03/05 07:04:01;;;;;;;11.77;5.23;;;;;;;2.25;100.00;101789.03;5097630;28;20072;-89
2023/03/05 07:06:27;;;;;;;10.13;4.45;;;;;;;2.23;100.00;101791.84;5100859;28;20111;-87
2023/03/05 07:08:56;;;;;;;11.95;4.53;;;;;;;2.31;100.00;101787.47;5096734;28;20020;-88
2023/03/05 07:11:22;;;;;;;10.48;4.60;;;;;;;2.36;100.00;101785.13;5077864;28;20032;-91
2023/03/05 07:13:48;;;;;;;13.10;4.50;;;;;;;2.47;100.00;101789.97;5093337;28;20020;-85
2023/03/05 07:16:28;;;;;;;13.63;4.30;;;;;;;2.54;100.00;101788.28;5105838;28;20023;-85
2023/03/05 07:18:56;;;;;;;12.40;4.47;;;;;;;2.64;100.00;101784.53;5095860;28;20016;-85
2023/03/05 07:21:24;;;;;;;12.25;4.80;;;;;;;2.76;100.00;101791.00;5094708;28;20055;-85
2023/03/05 07:23:52;;;;;;;12.90;4.80;;;;;;;2.85;100.00;101779.34;5100937;28;20033;-86
2023/03/05 07:26:18;;;;;;;10.70;4.73;;;;;;;3.01;100.00;101783.59;5094383;28;20475;-85
2023/03/05 07:28:43;;;;;;;15.60;5.23;;;;;;;3.02;100.00;101771.19;5093157;28;20292;-85
2023/03/05 07:31:17;;;;;;;9.63;4.10;;;;;;;3.09;100.00;101769.47;5103883;28;20486;-85
2023/03/05 07:33:43;;;;;;;12.68;4.78;;;;;;;3.11;100.00;101763.97;5110818;28;20383;-85
2023/03/05 07:36:09;;;;;;;12.33;4.47;;;;;;;3.04;100.00;101763.91;5092494;28;20024;-85
2023/03/05 07:38:36;;;;;;;12.15;4.82;;;;;;;3.09;100.00;101761.53;5093553;28;20024;-85
2023/03/05 07:41:04;;;;;;;9.60;4.22;;;;;;;3.17;100.00;101765.91;5093630;28;20020;-85
2023/03/05 07:43:29;;;;;;;12.77;4.35;;;;;;;3.19;100.00;101771.84;5093505;28;20032;-85
2023/03/05 07:45:54;;;;;;;12.07;4.17;;;;;;;3.22;100.00;101767.97;5075104;28;20115;-85
2023/03/05 07:48:20;;;;;;;12.60;4.63;;;;;;;3.22;100.00;101774.09;5110342;28;20126;-84
2023/03/05 07:50:46;;;;;;;11.83;4.90;;;;;;;3.24;100.00;101772.06;5107337;28;20036;-85
2023/03/05 07:53:12;;;;;;;10.38;4.40;;;;;;;3.26;100.00;101774.56;5092883;28;20074;-85
2023/03/05 07:55:42;;;;;;;10.13;3.75;;;;;;;3.33;100.00;101775.44;5092779;28;20020;-85
2023/03/05 07:58:08;;;;;;;8.27;3.58;;;;;;;3.31;100.00;101765.03;5093917;28;20049;-85
2023/03/05 08:00:33;;;;;;;8.50;3.63;;;;;;;3.36;100.00;101772.44;5112985;28;20023;-85
2023/03/05 08:02:58;;;;;;;7.00;3.27;;;;;;;3.35;100.00;101759.38;5104316;28;20032;-85
2023/03/05 08:05:25;;;;;;;7.78;3.25;;;;;;;3.45;100.00;101754.59;5093274;28;20032;-85
2023/03/05 08:07:51;;;;;;;10.73;2.83;;;;;;;3.55;100.00;101752.47;5098047;28;20028;-85
2023/03/05 08:10:16;;;;;;;6.05;3.20;;;;;;;3.62;100.00;101749.88;5095078;28;20027;-85
2023/03/05 08:12:42;;;;;;;6.03;3.03;;;;;;;3.79;100.00;101755.75;5086735;28;20034;-85
2023/03/05 08:15:07;;;;;;;5.93;3.13;;;;;;;3.87;100.00;101758.28;5092420;28;20387;-85
2023/03/05 08:17:33;;;;;;;5.90;2.63;;;;;;;3.92;100.00;101755.06;5074898;28;20036;-85
2023/03/05 08:19:59;;;;;;;4.77;2.20;;;;;;;3.97;100.00;101763.25;5092807;28;20078;-85
2023/03/05 08:22:28;;;;;;;10.13;3.03;;;;;;;3.99;100.00;101755.09;5074357;28;20031;-85
2023/03/05 08:24:53;;;;;;;6.82;2.70;;;;;;;4.09;100.00;101751.13;5092945;28;20024;-85
2023/03/05 08:27:18;;;;;;;7.33;2.67;;;;;;;4.21;100.00;101753.25;5091062;28;20077;-84
2023/03/05 08:29:44;;;;;;;6.47;2.30;;;;;;;4.23;100.00;101738.78;5084127;28;20031;-84
2023/03/05 08:32:11;;;;;;;4.73;2.50;;;;;;;4.38;100.00;101749.28;5075062;28;20431;-84
2023/03/05 08:34:36;;;;;;;3.53;2.35;;;;;;;4.50;100.00;101746.91;5092101;28;20020;-84
2023/03/05 08:37:01;;;;;;;4.80;2.30;;;;;;;4.66;100.00;101744.97;5112954;28;20081;-85
2023/03/05 08:39:28;;;;;;;3.10;1.97;;;;;;;4.80;100.00;101740.56;5109228;28;20107;-84
2023/03/05 08:41:54;;;;;;;4.55;1.90;;;;;;;4.83;100.00;101729.53;5091037;28;20028;-86
2023/03/05 08:44:20;;;;;;;3.80;1.67;;;;;;;4.92;100.00;101733.69;5096575;28;20306;-86
2023/03/05 08:46:45;;;;;;;3.80;1.55;;;;;;;4.96;100.00;101736.75;5101529;28;20442;-84
2023/03/05 08:49:12;;;;;;;5.93;2.20;;;;;;;5.02;100.00;101727.16;5099661;28;20043;-84
2023/03/05 08:51:37;;;;;;;4.95;2.00;;;;;;;5.15;100.00;101729.88;5092725;28;20028;-84
2023/03/05 08:54:05;;;;;;;2.93;1.47;;;;;;;5.22;100.00;101728.06;5091360;28;20011;-84
2023/03/05 08:56:33;;;;;;;2.30;1.58;;;;;;;5.28;100.00;101719.31;5089879;28;20419;-84
2023/03/05 08:58:58;;;;;;;3.83;1.30;;;;;;;5.42;100.00;101716.66;5089836;28;20039;-84
2023/03/05 09:01:23;;;;;;;4.30;1.63;;;;;;;5.52;100.00;101716.28;5082430;28;20294;-84
2023/03/05 09:03:49;;;;;;;6.63;2.00;;;;;;;5.53;100.00;101710.75;5080346;28;20252;-84
2023/03/05 09:06:14;;;;;;;3.90;1.37;;;;;;;5.68;100.00;101715.06;5090205;28;20027;-84
2023/03/05 09:08:40;;;;;;;5.55;1.88;;;;;;;5.83;100.00;101723.69;5098566;28;20767;-84
2023/03/05 09:11:08;;;;;;;4.50;1.40;;;;;;;5.91;100.00;101720.81;5084511;28;20125;-84
2023/03/05 09:13:33;;;;;;;4.97;1.48;;;;;;;6.02;100.00;101716.75;5089289;28;20036;-85
2023/03/05 09:16:02;;;;;;;4.55;1.38;;;;;;;6.14;100.00;101718.78;5079686;28;20081;-85
2023/03/05 09:18:29;;;;;;;8.65;1.83;;;;;;;6.17;100.00;101702.41;5096244;28;20101;-85
2023/03/05 09:20:54;;;;;;;5.33;1.60;;;;;;;6.14;100.00;101711.63;5090068;28;20176;-85
2023/03/05 09:23:20;;;;;;;4.75;1.50;;;;;;;6.05;100.00;101707.53;5089364;28;20475;-85
2023/03/05 09:25:45;;;;;;;4.70;1.30;;;;;;;5.94;100.00;101698.28;5091978;28;20464;-86
2023/03/05 09:28:10;;;;;;;2.57;1.27;;;;;;;6.05;100.00;101710.19;5090520;28;20026;-84
2023/03/05 09:30:36;;;;;;;6.77;1.53;;;;;;;6.21;100.00;101708.97;5092453;28;20500;-83
2023/03/05 09:33:02;;;;;;;5.72;1.85;;;;;;;6.39;100.00;101700.31;5092631;28;20024;-85
2023/03/05 09:35:27;;;;;;;4.47;1.60;;;;;;;6.62;100.00;101697.22;5093699;28;20089;-86
2023/03/05 09:37:53;;;;;;;4.33;1.10;;;;;;;6.80;100.00;101685.06;5099139;28;20073;-86
2023/03/05 09:40:19;;;;;;;4.77;2.00;;;;;;;6.99;100.00;101696.66;5108640;28;20491;-87
2023/03/05 09:43:01;;;;;;;4.03;1.50;;;;;;;7.17;100.00;101687.13;5077561;28;20325;-86
2023/03/05 09:45:37;;;;;;;5.43;0.95;;;;;;;7.18;96.83;101678.09;5100185;28;20464;-85
2023/03/05 09:48:22;;;;;;;5.20;1.05;;;;;;;7.23;97.83;101678.28;5112117;28;20017;-86
2023/03/05 09:51:03;;;;;;;4.55;1.67;;;;;;;7.27;98.05;101679.50;5109395;28;20048;-85
2023/03/05 09:53:48;;;;;;;3.58;0.80;;;;;;;7.23;93.24;101686.28;5120698;28;20044;-84
2023/03/05 09:56:19;;;;;;;3.38;0.95;;;;;;;7.11;93.40;101680.81;5092984;28;20047;-85
2023/03/05 09:58:51;;;;;;;2.65;0.80;;;;;;;7.06;92.87;101677.94;5089921;28;20646;-86
2023/03/05 10:01:20;;;;;;;5.35;1.00;;;;;;;7.03;92.80;101673.06;5091680;28;20035;-85
2023/03/05 10:03:57;;;;;;;3.37;0.97;;;;;;;7.08;93.06;101673.22;5088903;28;20028;-84
2023/03/05 10:06:36;;;;;;;4.17;0.90;;;;;;;7.04;91.29;101678.19;5089479;28;20388;-84
2023/03/05 10:09:05;;;;;;;2.22;0.70;;;;;;;7.02;89.40;101679.44;5091050;28;20020;-85
2023/03/05 10:11:39;;;;;;;1.38;0.93;;;;;;;6.91;90.63;101675.59;5091316;28;20111;-84
2023/03/05 10:14:12;;;;;;;1.88;0.80;;;;;;;6.74;91.99;101670.75;5096477;28;20510;-85
2023/03/05 10:16:37;;;;;;;1.23;0.50;;;;;;;6.60;91.87;101675.28;5090329;28;20032;-85
2023/03/05 10:19:27;;;;;;;1.07;0.40;;;;;;;6.49;94.13;101667.94;5086912;28;20084;-83
2023/03/05 10:22:01;;;;;;;2.28;0.68;;;;;;;6.66;96.44;101668.28;5096341;28;20035;-85
2023/03/05 10:24:45;;;;;;;2.03;0.75;;;;;;;6.86;95.78;101654.06;5091461;28;20036;-85
2023/03/05 10:27:20;;;;;;;2.35;0.60;;;;;;;7.07;94.23;101652.94;5090659;28;20024;-85
2023/03/05 10:29:51;;;;;;;3.03;0.70;;;;;;;7.35;92.77;101657.88;5090662;28;20099;-85
2023/03/05 10:32:45;;;;;;;1.60;0.63;;;;;;;7.72;92.35;101660.69;5096194;28;20036;-85
2023/03/05 10:35:23;;;;;;;2.53;0.40;;;;;;;8.11;86.02;101647.22;5087439;28;20773;-84
2023/03/05 10:38:07;;;;;;;1.10;0.50;;;;;;;8.25;82.85;101644.41;5099645;28;20055;-85
2023/03/05 10:40:51;;;;;;;1.58;0.40;;;;;;;8.23;83.19;101641.94;5085854;28;20025;-86
2023/03/05 10:43:47;;;;;;;2.78;0.50;;;;;;;8.23;85.38;101639.25;5080766;28;20024;-85
2023/03/05 10:46:17;;;;;;;1.20;0.50;;;;;;;8.22;81.95;101634.16;5095867;28;20104;-85
2023/03/05 10:48:59;;;;;;;2.08;0.80;;;;;;;8.13;81.73;101628.28;5093412;28;20024;-84
2023/03/05 10:51:39;;;;;;;1.20;0.70;;;;;;;7.96;81.62;101636.06;5092959;28;20390;-84
2023/03/05 10:54:17;;;;;;;2.40;0.70;;;;;;;7.46;81.09;101640.38;5090130;28;20407;-83
2023/03/05 10:56:44;;;;;;;3.50;0.70;;;;;;;7.12;85.00;101629.13;5088081;28;20285;-85
2023/03/05 10:59:09;;;;;;;1.60;0.60;;;;;;;7.04;85.89;101616.88;5099908;28;20025;-85
2023/03/05 11:01:36;;;;;;;2.40;0.70;;;;;;;7.11;87.77;101630.16;5096828;28;20522;-85
2023/03/05 11:04:06;;;;;;;1.55;0.60;;;;;;;7.13;87.86;101628.91;5099769;28;20032;-85
2023/03/05 11:06:32;;;;;;;3.33;1.00;;;;;;;7.21;88.78;101624.34;5087137;28;20104;-84
2023/03/05 11:09:12;;;;;;;1.77;0.87;;;;;;;7.41;90.37;101616.22;5089908;28;20111;-87
2023/03/05 11:11:38;;;;;;;2.67;0.95;;;;;;;7.47;88.39;101615.34;5105834;28;20035;-84
2023/03/05 11:14:03;;;;;;;4.33;0.70;;;;;;;7.57;88.68;101609.53;5072854;28;20392;-85
2023/03/05 11:16:45;;;;;;;2.35;0.50;;;;;;;7.75;84.68;101600.75;5088499;28;20042;-86
2023/03/05 11:19:14;;;;;;;1.50;0.60;;;;;;;7.99;84.33;101611.59;5090179;28;20028;-85
2023/03/05 11:21:41;;;;;;;1.60;0.45;;;;;;;8.16;81.74;101603.84;5090200;28;20035;-84
2023/03/05 11:24:12;;;;;;;1.13;0.43;;;;;;;8.25;81.67;101585.66;5089159;28;20056;-84